sensor_id;sensor_type;location;lat;lon;timestamp;P1;durP1;ratioP1;P2;durP2;ratioP2
41653;SDS011;68687;52.030;7.110;2023-07-08T00:00:45;5.25;;;3.65;;
41653;SDS011;68687;52.030;7.110;2023-07-08T00:03:13;5.18;;;4.00;;
41653;SDS011;68687;52.030;7.110;2023-07-08T00:05:45;6.22;;;4.40;;
41653;SDS011;68687;52.030;7.110;2023-07-08T00:08:19;7.25;;;4.00;;
41653;SDS011;68687;52.030;7.110;2023-07-08T00:10:45;4.57;;;4.13;;
41653;SDS011;68687;52.030;7.110;2023-07-08T00:13:11;7.25;;;4.07;;
41653;SDS011;68687;52.030;7.110;2023-07-08T00:15:39;5.90;;;3.53;;
41653;SDS011;68687;52.030;7.110;2023-07-08T00:18:09;6.50;;;4.15;;
41653;SDS011;68687;52.030;7.110;2023-07-08T00:20:41;4.70;;;4.20;;
41653;SDS011;68687;52.030;7.110;2023-07-08T00:23:08;6.85;;;3.75;;
41653;SDS011;68687;52.030;7.110;2023-07-08T00:25:34;4.10;;;3.25;;
41653;SDS011;68687;52.030;7.110;2023-07-08T00:27:59;6.93;;;4.20;;
41653;SDS011;68687;52.030;7.110;2023-07-08T00:32:52;8.18;;;4.00;;
41653;SDS011;68687;52.030;7.110;2023-07-08T00:38:17;4.57;;;4.00;;
41653;SDS011;68687;52.030;7.110;2023-07-08T00:41:05;10.80;;;4.45;;
41653;SDS011;68687;52.030;7.110;2023-07-08T00:43:38;5.25;;;4.57;;
41653;SDS011;68687;52.030;7.110;2023-07-08T00:48:48;5.38;;;4.22;;
41653;SDS011;68687;52.030;7.110;2023-07-08T00:51:16;16.98;;;4.55;;
41653;SDS011;68687;52.030;7.110;2023-07-08T00:53:44;5.80;;;4.10;;
41653;SDS011;68687;52.030;7.110;2023-07-08T00:58:49;6.82;;;4.57;;
41653;SDS011;68687;52.030;7.110;2023-07-08T01:01:18;4.40;;;4.00;;
41653;SDS011;68687;52.030;7.110;2023-07-08T01:03:54;6.07;;;5.07;;
41653;SDS011;68687;52.030;7.110;2023-07-08T01:06:26;13.73;;;4.53;;
41653;SDS011;68687;52.030;7.110;2023-07-08T01:08:57;6.32;;;4.03;;
41653;SDS011;68687;52.030;7.110;2023-07-08T01:11:33;6.28;;;4.00;;
41653;SDS011;68687;52.030;7.110;2023-07-08T01:14:02;6.95;;;4.38;;
41653;SDS011;68687;52.030;7.110;2023-07-08T01:16:32;5.13;;;4.35;;
41653;SDS011;68687;52.030;7.110;2023-07-08T01:18:58;9.10;;;3.72;;
41653;SDS011;68687;52.030;7.110;2023-07-08T01:21:29;6.32;;;4.10;;
41653;SDS011;68687;52.030;7.110;2023-07-08T01:24:07;4.65;;;3.97;;
41653;SDS011;68687;52.030;7.110;2023-07-08T01:26:35;7.85;;;4.35;;
41653;SDS011;68687;52.030;7.110;2023-07-08T01:29:09;5.95;;;4.15;;
41653;SDS011;68687;52.030;7.110;2023-07-08T01:31:36;6.55;;;4.72;;
41653;SDS011;68687;52.030;7.110;2023-07-08T01:34:01;4.53;;;4.10;;
41653;SDS011;68687;52.030;7.110;2023-07-08T01:36:29;5.80;;;4.30;;
41653;SDS011;68687;52.030;7.110;2023-07-08T01:38:56;4.95;;;4.07;;
41653;SDS011;68687;52.030;7.110;2023-07-08T01:41:21;6.97;;;4.00;;
41653;SDS011;68687;52.030;7.110;2023-07-08T01:47:13;7.68;;;3.97;;
41653;SDS011;68687;52.030;7.110;2023-07-08T01:49:47;8.18;;;4.10;;
41653;SDS011;68687;52.030;7.110;2023-07-08T01:52:15;8.68;;;4.35;;
41653;SDS011;68687;52.030;7.110;2023-07-08T01:54:45;4.32;;;3.92;;
41653;SDS011;68687;52.030;7.110;2023-07-08T01:57:24;5.55;;;4.38;;
41653;SDS011;68687;52.030;7.110;2023-07-08T01:59:49;6.25;;;3.90;;
41653;SDS011;68687;52.030;7.110;2023-07-08T02:02:15;7.43;;;4.38;;
41653;SDS011;68687;52.030;7.110;2023-07-08T02:04:43;10.05;;;3.88;;
41653;SDS011;68687;52.030;7.110;2023-07-08T02:07:08;5.50;;;4.85;;
41653;SDS011;68687;52.030;7.110;2023-07-08T02:09:40;6.15;;;5.13;;
41653;SDS011;68687;52.030;7.110;2023-07-08T02:12:05;7.82;;;3.90;;
41653;SDS011;68687;52.030;7.110;2023-07-08T02:14:34;6.65;;;3.95;;
41653;SDS011;68687;52.030;7.110;2023-07-08T02:16:59;8.65;;;4.30;;
41653;SDS011;68687;52.030;7.110;2023-07-08T02:19:24;4.97;;;4.47;;
41653;SDS011;68687;52.030;7.110;2023-07-08T02:21:50;5.43;;;4.53;;
41653;SDS011;68687;52.030;7.110;2023-07-08T02:24:16;9.02;;;4.57;;
41653;SDS011;68687;52.030;7.110;2023-07-08T02:26:42;5.43;;;4.00;;
41653;SDS011;68687;52.030;7.110;2023-07-08T02:29:08;8.18;;;4.53;;
41653;SDS011;68687;52.030;7.110;2023-07-08T02:31:33;5.80;;;4.25;;
41653;SDS011;68687;52.030;7.110;2023-07-08T02:33:58;5.47;;;4.28;;
41653;SDS011;68687;52.030;7.110;2023-07-08T02:36:24;7.03;;;4.57;;
41653;SDS011;68687;52.030;7.110;2023-07-08T02:38:50;6.28;;;4.80;;
41653;SDS011;68687;52.030;7.110;2023-07-08T02:41:16;6.93;;;4.13;;
41653;SDS011;68687;52.030;7.110;2023-07-08T02:43:44;11.88;;;5.15;;
41653;SDS011;68687;52.030;7.110;2023-07-08T02:46:10;6.65;;;4.70;;
41653;SDS011;68687;52.030;7.110;2023-07-08T02:48:35;6.40;;;5.13;;
41653;SDS011;68687;52.030;7.110;2023-07-08T02:51:01;10.85;;;5.10;;
41653;SDS011;68687;52.030;7.110;2023-07-08T02:53:27;9.00;;;5.18;;
41653;SDS011;68687;52.030;7.110;2023-07-08T02:55:53;8.82;;;4.70;;
41653;SDS011;68687;52.030;7.110;2023-07-08T02:58:18;5.55;;;4.63;;
41653;SDS011;68687;52.030;7.110;2023-07-08T03:00:44;12.55;;;5.60;;
41653;SDS011;68687;52.030;7.110;2023-07-08T03:03:09;9.02;;;4.80;;
41653;SDS011;68687;52.030;7.110;2023-07-08T03:05:37;8.25;;;4.70;;
41653;SDS011;68687;52.030;7.110;2023-07-08T03:08:02;8.30;;;4.53;;
41653;SDS011;68687;52.030;7.110;2023-07-08T03:10:28;6.93;;;4.60;;
41653;SDS011;68687;52.030;7.110;2023-07-08T03:12:53;5.25;;;4.47;;
41653;SDS011;68687;52.030;7.110;2023-07-08T03:15:18;8.55;;;4.50;;
41653;SDS011;68687;52.030;7.110;2023-07-08T03:17:44;5.78;;;4.05;;
41653;SDS011;68687;52.030;7.110;2023-07-08T03:20:10;9.70;;;5.38;;
41653;SDS011;68687;52.030;7.110;2023-07-08T03:22:36;7.28;;;4.47;;
41653;SDS011;68687;52.030;7.110;2023-07-08T03:25:02;7.45;;;4.93;;
41653;SDS011;68687;52.030;7.110;2023-07-08T03:27:37;8.05;;;4.45;;
41653;SDS011;68687;52.030;7.110;2023-07-08T03:30:05;6.07;;;4.37;;
41653;SDS011;68687;52.030;7.110;2023-07-08T03:32:31;8.65;;;3.90;;
41653;SDS011;68687;52.030;7.110;2023-07-08T03:34:56;5.65;;;4.50;;
41653;SDS011;68687;52.030;7.110;2023-07-08T03:37:21;7.30;;;4.28;;
41653;SDS011;68687;52.030;7.110;2023-07-08T03:39:47;5.80;;;4.22;;
41653;SDS011;68687;52.030;7.110;2023-07-08T03:42:12;8.95;;;3.88;;
41653;SDS011;68687;52.030;7.110;2023-07-08T03:44:37;5.07;;;3.60;;
41653;SDS011;68687;52.030;7.110;2023-07-08T03:47:03;7.60;;;3.90;;
41653;SDS011;68687;52.030;7.110;2023-07-08T03:49:31;9.43;;;4.03;;
41653;SDS011;68687;52.030;7.110;2023-07-08T03:52:02;8.50;;;3.72;;
41653;SDS011;68687;52.030;7.110;2023-07-08T03:54:28;7.32;;;3.65;;
41653;SDS011;68687;52.030;7.110;2023-07-08T03:56:53;7.78;;;3.35;;
41653;SDS011;68687;52.030;7.110;2023-07-08T03:59:19;6.00;;;3.47;;
41653;SDS011;68687;52.030;7.110;2023-07-08T04:01:44;7.40;;;3.67;;
41653;SDS011;68687;52.030;7.110;2023-07-08T04:04:11;4.00;;;3.60;;
41653;SDS011;68687;52.030;7.110;2023-07-08T04:06:39;4.93;;;3.83;;
41653;SDS011;68687;52.030;7.110;2023-07-08T04:09:10;5.03;;;3.47;;
41653;SDS011;68687;52.030;7.110;2023-07-08T04:11:35;5.85;;;3.58;;
41653;SDS011;68687;52.030;7.110;2023-07-08T04:14:01;6.57;;;3.50;;
41653;SDS011;68687;52.030;7.110;2023-07-08T04:16:33;11.40;;;3.63;;
41653;SDS011;68687;52.030;7.110;2023-07-08T04:19:11;7.75;;;3.97;;
41653;SDS011;68687;52.030;7.110;2023-07-08T04:21:43;6.03;;;3.60;;
41653;SDS011;68687;52.030;7.110;2023-07-08T04:24:13;6.53;;;4.10;;
41653;SDS011;68687;52.030;7.110;2023-07-08T04:26:46;7.53;;;3.67;;
41653;SDS011;68687;52.030;7.110;2023-07-08T04:29:14;5.70;;;3.58;;
41653;SDS011;68687;52.030;7.110;2023-07-08T04:31:47;6.72;;;3.58;;
41653;SDS011;68687;52.030;7.110;2023-07-08T04:34:12;5.55;;;3.47;;
41653;SDS011;68687;52.030;7.110;2023-07-08T04:36:38;9.60;;;3.50;;
41653;SDS011;68687;52.030;7.110;2023-07-08T04:39:04;6.72;;;3.40;;
41653;SDS011;68687;52.030;7.110;2023-07-08T04:41:31;7.68;;;3.70;;
41653;SDS011;68687;52.030;7.110;2023-07-08T04:43:57;4.93;;;3.80;;
41653;SDS011;68687;52.030;7.110;2023-07-08T04:46:28;8.85;;;3.97;;
41653;SDS011;68687;52.030;7.110;2023-07-08T04:49:06;6.28;;;4.10;;
41653;SDS011;68687;52.030;7.110;2023-07-08T04:51:34;6.70;;;3.95;;
41653;SDS011;68687;52.030;7.110;2023-07-08T04:54:06;8.27;;;4.10;;
41653;SDS011;68687;52.030;7.110;2023-07-08T04:59:05;7.65;;;3.58;;
41653;SDS011;68687;52.030;7.110;2023-07-08T05:01:32;10.23;;;3.90;;
41653;SDS011;68687;52.030;7.110;2023-07-08T05:03:58;5.85;;;3.63;;
41653;SDS011;68687;52.030;7.110;2023-07-08T05:06:24;6.57;;;4.03;;
41653;SDS011;68687;52.030;7.110;2023-07-08T05:08:50;6.32;;;3.40;;
41653;SDS011;68687;52.030;7.110;2023-07-08T05:11:15;5.10;;;3.90;;
41653;SDS011;68687;52.030;7.110;2023-07-08T05:13:40;4.40;;;3.15;;
41653;SDS011;68687;52.030;7.110;2023-07-08T05:16:05;5.38;;;3.70;;
41653;SDS011;68687;52.030;7.110;2023-07-08T05:18:33;8.55;;;3.85;;
41653;SDS011;68687;52.030;7.110;2023-07-08T05:20:59;7.07;;;3.42;;
41653;SDS011;68687;52.030;7.110;2023-07-08T05:23:24;6.28;;;3.95;;
41653;SDS011;68687;52.030;7.110;2023-07-08T05:25:49;11.05;;;3.28;;
41653;SDS011;68687;52.030;7.110;2023-07-08T05:28:18;6.93;;;4.40;;
41653;SDS011;68687;52.030;7.110;2023-07-08T05:30:47;6.85;;;3.97;;
41653;SDS011;68687;52.030;7.110;2023-07-08T05:33:17;6.88;;;3.80;;
41653;SDS011;68687;52.030;7.110;2023-07-08T05:35:44;7.95;;;4.22;;
41653;SDS011;68687;52.030;7.110;2023-07-08T05:38:10;8.15;;;3.22;;
41653;SDS011;68687;52.030;7.110;2023-07-08T05:40:35;16.42;;;4.03;;
41653;SDS011;68687;52.030;7.110;2023-07-08T05:43:00;7.75;;;3.92;;
41653;SDS011;68687;52.030;7.110;2023-07-08T05:45:26;4.70;;;3.60;;
41653;SDS011;68687;52.030;7.110;2023-07-08T05:47:51;6.57;;;3.53;;
41653;SDS011;68687;52.030;7.110;2023-07-08T05:50:16;4.70;;;3.45;;
41653;SDS011;68687;52.030;7.110;2023-07-08T05:52:45;8.07;;;3.30;;
41653;SDS011;68687;52.030;7.110;2023-07-08T05:55:10;5.85;;;3.60;;
41653;SDS011;68687;52.030;7.110;2023-07-08T05:57:35;4.97;;;3.60;;
41653;SDS011;68687;52.030;7.110;2023-07-08T06:00:08;6.60;;;3.47;;
41653;SDS011;68687;52.030;7.110;2023-07-08T06:02:35;9.40;;;3.80;;
41653;SDS011;68687;52.030;7.110;2023-07-08T06:05:03;16.05;;;3.65;;
41653;SDS011;68687;52.030;7.110;2023-07-08T06:07:29;11.13;;;3.97;;
41653;SDS011;68687;52.030;7.110;2023-07-08T06:09:54;8.13;;;3.22;;
41653;SDS011;68687;52.030;7.110;2023-07-08T06:12:21;5.85;;;3.58;;
41653;SDS011;68687;52.030;7.110;2023-07-08T06:14:49;8.85;;;3.50;;
41653;SDS011;68687;52.030;7.110;2023-07-08T06:17:17;7.68;;;3.75;;
41653;SDS011;68687;52.030;7.110;2023-07-08T06:19:43;6.50;;;3.67;;
41653;SDS011;68687;52.030;7.110;2023-07-08T06:22:17;4.40;;;3.78;;
41653;SDS011;68687;52.030;7.110;2023-07-08T06:24:46;4.43;;;3.00;;
41653;SDS011;68687;52.030;7.110;2023-07-08T06:27:15;7.05;;;3.45;;
41653;SDS011;68687;52.030;7.110;2023-07-08T06:29:44;6.22;;;3.75;;
41653;SDS011;68687;52.030;7.110;2023-07-08T06:32:09;5.97;;;3.85;;
41653;SDS011;68687;52.030;7.110;2023-07-08T06:37:22;5.13;;;3.85;;
41653;SDS011;68687;52.030;7.110;2023-07-08T06:39:47;5.73;;;3.60;;
41653;SDS011;68687;52.030;7.110;2023-07-08T06:42:12;5.23;;;4.20;;
41653;SDS011;68687;52.030;7.110;2023-07-08T06:44:43;6.33;;;3.60;;
41653;SDS011;68687;52.030;7.110;2023-07-08T06:47:18;4.82;;;3.35;;
41653;SDS011;68687;52.030;7.110;2023-07-08T06:49:47;9.55;;;4.28;;
41653;SDS011;68687;52.030;7.110;2023-07-08T06:52:13;6.25;;;4.43;;
41653;SDS011;68687;52.030;7.110;2023-07-08T06:54:39;8.23;;;4.03;;
41653;SDS011;68687;52.030;7.110;2023-07-08T06:57:04;7.38;;;4.00;;
41653;SDS011;68687;52.030;7.110;2023-07-08T06:59:30;8.88;;;3.97;;
41653;SDS011;68687;52.030;7.110;2023-07-08T07:01:55;9.38;;;3.45;;
41653;SDS011;68687;52.030;7.110;2023-07-08T07:04:21;10.43;;;3.60;;
41653;SDS011;68687;52.030;7.110;2023-07-08T07:06:46;8.35;;;4.00;;
41653;SDS011;68687;52.030;7.110;2023-07-08T07:09:11;7.70;;;4.20;;
41653;SDS011;68687;52.030;7.110;2023-07-08T07:11:37;9.67;;;3.93;;
41653;SDS011;68687;52.030;7.110;2023-07-08T07:14:02;4.80;;;3.67;;
41653;SDS011;68687;52.030;7.110;2023-07-08T07:16:30;7.87;;;3.83;;
41653;SDS011;68687;52.030;7.110;2023-07-08T07:18:56;9.10;;;4.50;;
41653;SDS011;68687;52.030;7.110;2023-07-08T07:21:24;5.30;;;4.00;;
41653;SDS011;68687;52.030;7.110;2023-07-08T07:23:49;8.63;;;4.45;;
41653;SDS011;68687;52.030;7.110;2023-07-08T07:26:17;4.70;;;4.10;;
41653;SDS011;68687;52.030;7.110;2023-07-08T07:28:52;7.15;;;3.67;;
41653;SDS011;68687;52.030;7.110;2023-07-08T07:31:20;4.47;;;3.70;;
41653;SDS011;68687;52.030;7.110;2023-07-08T07:33:45;8.43;;;4.22;;
41653;SDS011;68687;52.030;7.110;2023-07-08T07:36:11;7.50;;;3.80;;
41653;SDS011;68687;52.030;7.110;2023-07-08T07:38:36;6.77;;;4.33;;
41653;SDS011;68687;52.030;7.110;2023-07-08T07:41:01;4.30;;;3.90;;
41653;SDS011;68687;52.030;7.110;2023-07-08T07:43:31;5.35;;;4.35;;
41653;SDS011;68687;52.030;7.110;2023-07-08T07:45:56;5.88;;;4.25;;
41653;SDS011;68687;52.030;7.110;2023-07-08T07:48:21;7.80;;;4.53;;
41653;SDS011;68687;52.030;7.110;2023-07-08T07:50:50;10.45;;;4.53;;
41653;SDS011;68687;52.030;7.110;2023-07-08T07:53:19;9.75;;;4.60;;
41653;SDS011;68687;52.030;7.110;2023-07-08T07:55:44;6.10;;;4.15;;
41653;SDS011;68687;52.030;7.110;2023-07-08T07:58:09;5.40;;;4.13;;
41653;SDS011;68687;52.030;7.110;2023-07-08T08:00:45;5.47;;;3.65;;
41653;SDS011;68687;52.030;7.110;2023-07-08T08:03:19;5.07;;;4.37;;
41653;SDS011;68687;52.030;7.110;2023-07-08T08:05:45;5.65;;;4.10;;
41653;SDS011;68687;52.030;7.110;2023-07-08T08:08:10;6.45;;;4.45;;
41653;SDS011;68687;52.030;7.110;2023-07-08T08:10:36;7.68;;;5.35;;
41653;SDS011;68687;52.030;7.110;2023-07-08T08:13:04;6.13;;;4.10;;
41653;SDS011;68687;52.030;7.110;2023-07-08T08:15:29;8.93;;;4.60;;
41653;SDS011;68687;52.030;7.110;2023-07-08T08:18:01;8.77;;;4.57;;
41653;SDS011;68687;52.030;7.110;2023-07-08T08:20:29;6.63;;;4.60;;
41653;SDS011;68687;52.030;7.110;2023-07-08T08:22:58;5.70;;;4.47;;
41653;SDS011;68687;52.030;7.110;2023-07-08T08:25:23;7.15;;;4.93;;
41653;SDS011;68687;52.030;7.110;2023-07-08T08:27:49;9.27;;;4.97;;
41653;SDS011;68687;52.030;7.110;2023-07-08T08:30:15;6.93;;;5.38;;
41653;SDS011;68687;52.030;7.110;2023-07-08T08:32:40;6.88;;;5.20;;
41653;SDS011;68687;52.030;7.110;2023-07-08T08:35:06;6.47;;;4.32;;
41653;SDS011;68687;52.030;7.110;2023-07-08T08:37:31;5.45;;;4.85;;
41653;SDS011;68687;52.030;7.110;2023-07-08T08:39:57;13.47;;;5.30;;
41653;SDS011;68687;52.030;7.110;2023-07-08T08:42:41;5.30;;;4.60;;
41653;SDS011;68687;52.030;7.110;2023-07-08T08:45:12;6.68;;;4.40;;
41653;SDS011;68687;52.030;7.110;2023-07-08T08:47:42;7.80;;;4.70;;
41653;SDS011;68687;52.030;7.110;2023-07-08T08:52:41;6.70;;;4.60;;
41653;SDS011;68687;52.030;7.110;2023-07-08T08:55:10;6.22;;;5.05;;
41653;SDS011;68687;52.030;7.110;2023-07-08T08:57:39;6.28;;;4.60;;
41653;SDS011;68687;52.030;7.110;2023-07-08T09:00:11;5.85;;;5.05;;
41653;SDS011;68687;52.030;7.110;2023-07-08T09:02:51;7.95;;;5.55;;
41653;SDS011;68687;52.030;7.110;2023-07-08T09:05:22;9.98;;;5.50;;
41653;SDS011;68687;52.030;7.110;2023-07-08T09:13:16;8.77;;;5.80;;
41653;SDS011;68687;52.030;7.110;2023-07-08T09:15:48;10.63;;;6.63;;
41653;SDS011;68687;52.030;7.110;2023-07-08T09:18:25;7.50;;;5.78;;
41653;SDS011;68687;52.030;7.110;2023-07-08T09:20:55;9.85;;;6.28;;
41653;SDS011;68687;52.030;7.110;2023-07-08T09:23:26;6.70;;;6.03;;
41653;SDS011;68687;52.030;7.110;2023-07-08T09:26:05;8.82;;;5.95;;
41653;SDS011;68687;52.030;7.110;2023-07-08T09:28:40;13.10;;;6.03;;
41653;SDS011;68687;52.030;7.110;2023-07-08T09:31:08;9.30;;;5.90;;
41653;SDS011;68687;52.030;7.110;2023-07-08T09:33:41;8.25;;;6.47;;
41653;SDS011;68687;52.030;7.110;2023-07-08T09:36:15;9.87;;;6.03;;
41653;SDS011;68687;52.030;7.110;2023-07-08T09:38:43;8.05;;;6.30;;
41653;SDS011;68687;52.030;7.110;2023-07-08T09:41:11;6.88;;;6.13;;
41653;SDS011;68687;52.030;7.110;2023-07-08T09:43:37;9.80;;;5.80;;
41653;SDS011;68687;52.030;7.110;2023-07-08T09:46:03;9.05;;;5.30;;
41653;SDS011;68687;52.030;7.110;2023-07-08T09:48:33;12.10;;;6.05;;
41653;SDS011;68687;52.030;7.110;2023-07-08T09:51:00;10.00;;;5.85;;
41653;SDS011;68687;52.030;7.110;2023-07-08T09:53:26;7.50;;;5.97;;
41653;SDS011;68687;52.030;7.110;2023-07-08T09:55:52;7.75;;;5.68;;
41653;SDS011;68687;52.030;7.110;2023-07-08T09:58:25;9.98;;;6.40;;
41653;SDS011;68687;52.030;7.110;2023-07-08T10:00:57;13.40;;;5.88;;
41653;SDS011;68687;52.030;7.110;2023-07-08T10:03:26;10.23;;;5.97;;
41653;SDS011;68687;52.030;7.110;2023-07-08T10:05:56;9.38;;;6.63;;
41653;SDS011;68687;52.030;7.110;2023-07-08T10:08:27;8.98;;;5.97;;
41653;SDS011;68687;52.030;7.110;2023-07-08T10:11:03;8.80;;;6.10;;
41653;SDS011;68687;52.030;7.110;2023-07-08T10:13:42;8.73;;;5.45;;
41653;SDS011;68687;52.030;7.110;2023-07-08T10:16:25;6.83;;;5.53;;
41653;SDS011;68687;52.030;7.110;2023-07-08T10:18:53;11.65;;;7.18;;
41653;SDS011;68687;52.030;7.110;2023-07-08T10:21:29;9.32;;;6.63;;
41653;SDS011;68687;52.030;7.110;2023-07-08T10:27:14;8.98;;;6.40;;
41653;SDS011;68687;52.030;7.110;2023-07-08T10:35:50;10.23;;;6.47;;
41653;SDS011;68687;52.030;7.110;2023-07-08T10:38:38;8.50;;;6.32;;
41653;SDS011;68687;52.030;7.110;2023-07-08T10:41:17;11.40;;;6.57;;
41653;SDS011;68687;52.030;7.110;2023-07-08T11:03:40;9.38;;;6.32;;
41653;SDS011;68687;52.030;7.110;2023-07-08T11:09:28;10.20;;;6.82;;
41653;SDS011;68687;52.030;7.110;2023-07-08T11:11:56;12.15;;;6.35;;
41653;SDS011;68687;52.030;7.110;2023-07-08T11:14:46;9.63;;;6.10;;
41653;SDS011;68687;52.030;7.110;2023-07-08T11:17:27;8.95;;;5.88;;
41653;SDS011;68687;52.030;7.110;2023-07-08T11:19:59;9.98;;;5.57;;
41653;SDS011;68687;52.030;7.110;2023-07-08T11:22:35;13.40;;;6.97;;
41653;SDS011;68687;52.030;7.110;2023-07-08T11:25:14;10.68;;;7.00;;
41653;SDS011;68687;52.030;7.110;2023-07-08T11:27:43;8.55;;;7.10;;
41653;SDS011;68687;52.030;7.110;2023-07-08T11:32:36;8.38;;;6.68;;
41653;SDS011;68687;52.030;7.110;2023-07-08T11:35:04;9.77;;;6.38;;
41653;SDS011;68687;52.030;7.110;2023-07-08T11:37:32;9.55;;;6.78;;
41653;SDS011;68687;52.030;7.110;2023-07-08T11:40:05;9.80;;;6.78;;
41653;SDS011;68687;52.030;7.110;2023-07-08T11:42:39;9.35;;;6.35;;
41653;SDS011;68687;52.030;7.110;2023-07-08T11:45:08;10.88;;;7.55;;
41653;SDS011;68687;52.030;7.110;2023-07-08T11:47:48;9.55;;;8.27;;
41653;SDS011;68687;52.030;7.110;2023-07-08T11:50:24;11.10;;;7.60;;
41653;SDS011;68687;52.030;7.110;2023-07-08T11:53:01;9.73;;;7.15;;
41653;SDS011;68687;52.030;7.110;2023-07-08T11:55:47;10.75;;;7.35;;
41653;SDS011;68687;52.030;7.110;2023-07-08T12:06:40;12.07;;;7.22;;
41653;SDS011;68687;52.030;7.110;2023-07-08T12:09:15;9.48;;;6.65;;
41653;SDS011;68687;52.030;7.110;2023-07-08T12:11:59;14.15;;;7.47;;
41653;SDS011;68687;52.030;7.110;2023-07-08T12:14:26;14.88;;;7.43;;
41653;SDS011;68687;52.030;7.110;2023-07-08T12:16:53;12.68;;;6.32;;
41653;SDS011;68687;52.030;7.110;2023-07-08T12:19:20;10.73;;;6.63;;
41653;SDS011;68687;52.030;7.110;2023-07-08T12:21:50;12.95;;;6.43;;
41653;SDS011;68687;52.030;7.110;2023-07-08T12:24:16;10.60;;;6.50;;
41653;SDS011;68687;52.030;7.110;2023-07-08T12:26:51;12.73;;;6.47;;
41653;SDS011;68687;52.030;7.110;2023-07-08T12:29:16;10.50;;;6.15;;
41653;SDS011;68687;52.030;7.110;2023-07-08T12:31:42;8.73;;;6.07;;
41653;SDS011;68687;52.030;7.110;2023-07-08T12:34:11;11.15;;;6.38;;
41653;SDS011;68687;52.030;7.110;2023-07-08T12:36:39;9.40;;;6.15;;
41653;SDS011;68687;52.030;7.110;2023-07-08T12:39:08;12.18;;;6.82;;
41653;SDS011;68687;52.030;7.110;2023-07-08T12:41:43;11.52;;;6.35;;
41653;SDS011;68687;52.030;7.110;2023-07-08T12:44:27;9.85;;;6.57;;
41653;SDS011;68687;52.030;7.110;2023-07-08T12:46:53;10.13;;;6.18;;
41653;SDS011;68687;52.030;7.110;2023-07-08T12:49:20;11.38;;;5.80;;
41653;SDS011;68687;52.030;7.110;2023-07-08T12:51:46;11.05;;;6.60;;
41653;SDS011;68687;52.030;7.110;2023-07-08T12:54:13;12.23;;;7.13;;
41653;SDS011;68687;52.030;7.110;2023-07-08T12:56:39;16.15;;;6.47;;
41653;SDS011;68687;52.030;7.110;2023-07-08T12:59:08;12.45;;;6.05;;
41653;SDS011;68687;52.030;7.110;2023-07-08T13:01:39;13.13;;;5.78;;
41653;SDS011;68687;52.030;7.110;2023-07-08T13:04:05;9.45;;;6.28;;
41653;SDS011;68687;52.030;7.110;2023-07-08T13:06:34;10.13;;;6.88;;
41653;SDS011;68687;52.030;7.110;2023-07-08T13:09:11;11.80;;;6.03;;
41653;SDS011;68687;52.030;7.110;2023-07-08T13:11:59;14.70;;;6.18;;
41653;SDS011;68687;52.030;7.110;2023-07-08T13:14:28;10.48;;;6.28;;
41653;SDS011;68687;52.030;7.110;2023-07-08T13:16:54;12.82;;;6.55;;
41653;SDS011;68687;52.030;7.110;2023-07-08T13:19:19;12.32;;;6.03;;
41653;SDS011;68687;52.030;7.110;2023-07-08T13:21:45;12.98;;;6.32;;
41653;SDS011;68687;52.030;7.110;2023-07-08T13:24:12;10.38;;;6.30;;
41653;SDS011;68687;52.030;7.110;2023-07-08T13:26:38;9.57;;;6.13;;
41653;SDS011;68687;52.030;7.110;2023-07-08T13:29:36;8.20;;;6.13;;
41653;SDS011;68687;52.030;7.110;2023-07-08T13:32:04;9.63;;;6.50;;
41653;SDS011;68687;52.030;7.110;2023-07-08T13:34:30;9.98;;;5.70;;
41653;SDS011;68687;52.030;7.110;2023-07-08T13:36:57;9.85;;;5.72;;
41653;SDS011;68687;52.030;7.110;2023-07-08T13:42:11;15.75;;;6.40;;
41653;SDS011;68687;52.030;7.110;2023-07-08T13:44:46;7.47;;;6.13;;
41653;SDS011;68687;52.030;7.110;2023-07-08T13:50:14;10.63;;;6.63;;
41653;SDS011;68687;52.030;7.110;2023-07-08T13:52:53;10.30;;;6.40;;
41653;SDS011;68687;52.030;7.110;2023-07-08T13:55:22;10.50;;;7.25;;
41653;SDS011;68687;52.030;7.110;2023-07-08T13:57:55;12.85;;;5.90;;
41653;SDS011;68687;52.030;7.110;2023-07-08T14:00:30;12.55;;;6.57;;
41653;SDS011;68687;52.030;7.110;2023-07-08T14:02:56;9.95;;;6.70;;
41653;SDS011;68687;52.030;7.110;2023-07-08T14:05:22;10.77;;;6.93;;
41653;SDS011;68687;52.030;7.110;2023-07-08T14:07:47;10.05;;;6.85;;
41653;SDS011;68687;52.030;7.110;2023-07-08T14:10:13;9.20;;;5.78;;
41653;SDS011;68687;52.030;7.110;2023-07-08T14:12:39;10.18;;;6.85;;
41653;SDS011;68687;52.030;7.110;2023-07-08T14:15:05;8.90;;;6.68;;
41653;SDS011;68687;52.030;7.110;2023-07-08T14:17:31;9.63;;;6.55;;
41653;SDS011;68687;52.030;7.110;2023-07-08T14:19:57;8.32;;;6.28;;
41653;SDS011;68687;52.030;7.110;2023-07-08T14:22:31;9.88;;;6.50;;
41653;SDS011;68687;52.030;7.110;2023-07-08T14:24:58;9.80;;;6.18;;
41653;SDS011;68687;52.030;7.110;2023-07-08T14:27:33;17.55;;;6.97;;
41653;SDS011;68687;52.030;7.110;2023-07-08T14:29:58;9.27;;;6.25;;
41653;SDS011;68687;52.030;7.110;2023-07-08T14:32:28;10.27;;;6.13;;
41653;SDS011;68687;52.030;7.110;2023-07-08T14:35:28;12.25;;;6.72;;
41653;SDS011;68687;52.030;7.110;2023-07-08T14:37:51;9.10;;;5.68;;
41653;SDS011;68687;52.030;7.110;2023-07-08T14:42:49;12.52;;;6.30;;
41653;SDS011;68687;52.030;7.110;2023-07-08T14:45:20;10.20;;;6.13;;
41653;SDS011;68687;52.030;7.110;2023-07-08T14:47:45;11.93;;;6.43;;
41653;SDS011;68687;52.030;7.110;2023-07-08T14:50:12;11.17;;;6.27;;
41653;SDS011;68687;52.030;7.110;2023-07-08T14:52:38;13.43;;;6.07;;
41653;SDS011;68687;52.030;7.110;2023-07-08T14:55:04;10.80;;;6.07;;
41653;SDS011;68687;52.030;7.110;2023-07-08T14:57:30;8.98;;;5.65;;
41653;SDS011;68687;52.030;7.110;2023-07-08T15:00:02;8.88;;;6.05;;
41653;SDS011;68687;52.030;7.110;2023-07-08T15:02:29;9.20;;;6.63;;
41653;SDS011;68687;52.030;7.110;2023-07-08T15:04:54;12.20;;;5.75;;
41653;SDS011;68687;52.030;7.110;2023-07-08T15:07:19;8.63;;;6.33;;
41653;SDS011;68687;52.030;7.110;2023-07-08T15:09:45;12.80;;;6.18;;
41653;SDS011;68687;52.030;7.110;2023-07-08T15:12:11;10.13;;;6.00;;
41653;SDS011;68687;52.030;7.110;2023-07-08T15:14:37;7.47;;;5.53;;
41653;SDS011;68687;52.030;7.110;2023-07-08T15:17:08;7.40;;;5.25;;
41653;SDS011;68687;52.030;7.110;2023-07-08T15:19:38;10.50;;;5.43;;
41653;SDS011;68687;52.030;7.110;2023-07-08T15:22:03;12.20;;;5.40;;
41653;SDS011;68687;52.030;7.110;2023-07-08T15:24:29;7.68;;;5.40;;
41653;SDS011;68687;52.030;7.110;2023-07-08T15:26:54;8.80;;;5.83;;
41653;SDS011;68687;52.030;7.110;2023-07-08T15:29:22;6.82;;;4.75;;
41653;SDS011;68687;52.030;7.110;2023-07-08T15:31:48;11.48;;;5.60;;
41653;SDS011;68687;52.030;7.110;2023-07-08T15:34:15;8.60;;;5.38;;
41653;SDS011;68687;52.030;7.110;2023-07-08T15:36:42;9.48;;;5.43;;
41653;SDS011;68687;52.030;7.110;2023-07-08T15:39:08;9.43;;;5.70;;
41653;SDS011;68687;52.030;7.110;2023-07-08T15:41:34;9.65;;;5.40;;
41653;SDS011;68687;52.030;7.110;2023-07-08T15:44:00;8.90;;;5.22;;
41653;SDS011;68687;52.030;7.110;2023-07-08T15:46:27;8.55;;;5.65;;
41653;SDS011;68687;52.030;7.110;2023-07-08T15:48:57;8.52;;;5.53;;
41653;SDS011;68687;52.030;7.110;2023-07-08T15:51:22;8.63;;;5.60;;
41653;SDS011;68687;52.030;7.110;2023-07-08T15:53:48;7.95;;;5.10;;
41653;SDS011;68687;52.030;7.110;2023-07-08T15:56:14;8.05;;;6.05;;
41653;SDS011;68687;52.030;7.110;2023-07-08T15:58:45;6.47;;;5.55;;
41653;SDS011;68687;52.030;7.110;2023-07-08T16:01:16;8.95;;;5.22;;
41653;SDS011;68687;52.030;7.110;2023-07-08T16:03:45;10.52;;;6.28;;
41653;SDS011;68687;52.030;7.110;2023-07-08T16:06:10;9.73;;;6.40;;
41653;SDS011;68687;52.030;7.110;2023-07-08T16:08:36;9.57;;;6.20;;
41653;SDS011;68687;52.030;7.110;2023-07-08T16:11:02;7.77;;;5.50;;
41653;SDS011;68687;52.030;7.110;2023-07-08T16:13:30;8.43;;;6.18;;